Chasse Spleen — VJN3961 — position and weather

sailwx.info

Track history (hours):
 
Tides and Currents Weather Stations Pressure Air Temp Water Temp Dewpoint Dewpoint Depression Visibility Wind Speed Wind Dir Waves Ship Positions

Chasse Spleen

Last reported at 2018-Jun-23 00:30 UTC. Time now 2018-Jun-23 00:42 UTC.
Position N 47°38' W 122°23'.

Length 20 m.

Type: Sailing vessel. MMSI: 503028020.

Date/timePositionNaut miles runAvg speedWind from/ knotsBaromVisibWave heightAir tempDewpointWater temp
2018-Jun-23 00:30N 47°38' W 122°23'0 0.0
2018-Jun-22 23:59N 47°38' W 122°23'0 0.0
2018-Jun-22 23:29N 47°38' W 122°23'0 0.0
2018-Jun-22 22:59N 47°38' W 122°23'0 0.0
2018-Jun-22 22:13N 47°38' W 122°23'0 0.0
2018-Jun-22 21:56N 47°38' W 122°23'0 0.0
2018-Jun-22 21:29N 47°38' W 122°23'0 0.0
2018-Jun-22 20:59N 47°38' W 122°23'0 0.0
2018-Jun-22 20:29N 47°38' W 122°23'0 0.0
2018-Jun-22 19:59N 47°38' W 122°23'0 0.0
2018-Jun-22 19:29N 47°38' W 122°23'0 0.0
2018-Jun-22 18:59N 47°38' W 122°23'0 0.0
2018-Jun-22 18:29N 47°38' W 122°23'0 0.0
2018-Jun-22 17:59N 47°38' W 122°23'0 0.0
2018-Jun-22 17:29N 47°38' W 122°23'0 0.0
2018-Jun-22 16:59N 47°38' W 122°23'0 0.0
2018-Jun-22 16:29N 47°38' W 122°23'0 0.0
2018-Jun-22 15:59N 47°38' W 122°23'0 0.0
2018-Jun-22 15:29N 47°38' W 122°23'0 0.0
2018-Jun-22 14:59N 47°38' W 122°23'0 0.0
2018-Jun-22 14:26N 47°38' W 122°23'0 0.0
2018-Jun-22 13:59N 47°38' W 122°23'0 0.0
2018-Jun-22 13:29N 47°38' W 122°23'0 0.0
2018-Jun-22 12:59N 47°38' W 122°23'0 0.0
2018-Jun-22 12:29N 47°38' W 122°23'0 0.0
2018-Jun-22 11:59N 47°38' W 122°23'0 0.0
2018-Jun-22 11:29N 47°38' W 122°23'0 0.0
2018-Jun-22 10:59N 47°38' W 122°23'0 0.0
2018-Jun-22 10:29N 47°38' W 122°23'0 0.0
2018-Jun-22 09:59N 47°38' W 122°23'0 0.0
2018-Jun-22 09:29N 47°38' W 122°23'0 0.0
2018-Jun-22 08:59N 47°38' W 122°23'0 0.0
2018-Jun-22 08:29N 47°38' W 122°23'0 0.0
2018-Jun-22 07:59N 47°38' W 122°23'0 0.0
2018-Jun-22 07:29N 47°38' W 122°23'0 0.0
2018-Jun-22 06:59N 47°38' W 122°23'0 0.0
2018-Jun-22 06:29N 47°38' W 122°23'0 0.0
2018-Jun-22 05:59N 47°38' W 122°23'0 0.0
2018-Jun-22 05:29N 47°38' W 122°23'0 0.0
2018-Jun-22 04:59N 47°38' W 122°23'0 0.0
2018-Jun-22 04:29N 47°38' W 122°23'0 0.0
2018-Jun-22 03:59N 47°38' W 122°23'0 0.0
2018-Jun-22 03:29N 47°38' W 122°23'0 0.1
2018-Jun-22 02:59N 47°38' W 122°23'0 0.1
2018-Jun-22 02:26N 47°38' W 122°23'0 0.0
2018-Jun-22 01:59N 47°38' W 122°23'0 0.0
2018-Jun-22 01:25N 47°38' W 122°23'0 0.0
2018-Jun-22 00:56N 47°38' W 122°23'0 0.0
2018-Jun-22 00:23N 47°38' W 122°23'0 0.0
2018-Jun-21 23:53N 47°38' W 122°23'0 0.0
2018-Jun-21 07:14N 47°38' W 122°23'0 0.0
2018-Jun-21 06:59N 47°38' W 122°23'0 0.0
2018-Jun-21 06:26N 47°38' W 122°23'0 0.0
2018-Jun-21 05:56N 47°38' W 122°23'0 0.0
2018-Jun-20 23:29N 47°38' W 122°23'0 0.0
2018-Jun-20 22:59N 47°38' W 122°23'0 0.0
2018-Jun-20 22:23N 47°38' W 122°23'0 0.0
2018-Jun-20 21:59N 47°38' W 122°23'0 0.0
2018-Jun-20 20:26N 47°38' W 122°23'0 0.0
2018-Jun-20 19:56N 47°38' W 122°23'3 3.1
2018-Jun-20 19:02N 47°39' W 122°27'0 7.8
2018-Jun-20 19:00N 47°39' W 122°27'2 3.1
2018-Jun-20 18:30N 47°40' W 122°29'3 6.7
2018-Jun-20 18:00N 47°43' W 122°28'4 8.2
2018-Jun-20 17:30N 47°47' W 122°28'4 8.3
2018-Jun-20 17:00N 47°51' W 122°29'  
Track history (hours):
 
Tides and Currents Weather Stations Pressure Air Temp Water Temp Dewpoint Dewpoint Depression Visibility Wind Speed Wind Dir Waves Ship Positions

Chasse Spleen

Last reported at 2018-Jun-23 00:30 UTC. Time now 2018-Jun-23 00:42 UTC.
Position N 47°38' W 122°23'.

Length 20 m.

Type: Sailing vessel. MMSI: 503028020.

Date/timePositionNaut miles runAvg speedWind from/ knotsBaromVisibWave heightAir tempDewpointWater temp
2018-Jun-23 00:30N 47°38' W 122°23'0 0.0
2018-Jun-22 23:59N 47°38' W 122°23'0 0.0
2018-Jun-22 23:29N 47°38' W 122°23'0 0.0
2018-Jun-22 22:59N 47°38' W 122°23'0 0.0
2018-Jun-22 22:13N 47°38' W 122°23'0 0.0
2018-Jun-22 21:56N 47°38' W 122°23'0 0.0
2018-Jun-22 21:29N 47°38' W 122°23'0 0.0
2018-Jun-22 20:59N 47°38' W 122°23'0 0.0
2018-Jun-22 20:29N 47°38' W 122°23'0 0.0
2018-Jun-22 19:59N 47°38' W 122°23'0 0.0
2018-Jun-22 19:29N 47°38' W 122°23'0 0.0
2018-Jun-22 18:59N 47°38' W 122°23'0 0.0
2018-Jun-22 18:29N 47°38' W 122°23'0 0.0
2018-Jun-22 17:59N 47°38' W 122°23'0 0.0
2018-Jun-22 17:29N 47°38' W 122°23'0 0.0
2018-Jun-22 16:59N 47°38' W 122°23'0 0.0
2018-Jun-22 16:29N 47°38' W 122°23'0 0.0
2018-Jun-22 15:59N 47°38' W 122°23'0 0.0
2018-Jun-22 15:29N 47°38' W 122°23'0 0.0
2018-Jun-22 14:59N 47°38' W 122°23'0 0.0
2018-Jun-22 14:26N 47°38' W 122°23'0 0.0
2018-Jun-22 13:59N 47°38' W 122°23'0 0.0
2018-Jun-22 13:29N 47°38' W 122°23'0 0.0
2018-Jun-22 12:59N 47°38' W 122°23'0 0.0
2018-Jun-22 12:29N 47°38' W 122°23'0 0.0
2018-Jun-22 11:59N 47°38' W 122°23'0 0.0
2018-Jun-22 11:29N 47°38' W 122°23'0 0.0
2018-Jun-22 10:59N 47°38' W 122°23'0 0.0
2018-Jun-22 10:29N 47°38' W 122°23'0 0.0
2018-Jun-22 09:59N 47°38' W 122°23'0 0.0
2018-Jun-22 09:29N 47°38' W 122°23'0 0.0
2018-Jun-22 08:59N 47°38' W 122°23'0 0.0
2018-Jun-22 08:29N 47°38' W 122°23'0 0.0
2018-Jun-22 07:59N 47°38' W 122°23'0 0.0
2018-Jun-22 07:29N 47°38' W 122°23'0 0.0
2018-Jun-22 06:59N 47°38' W 122°23'0 0.0
2018-Jun-22 06:29N 47°38' W 122°23'0 0.0
2018-Jun-22 05:59N 47°38' W 122°23'0 0.0
2018-Jun-22 05:29N 47°38' W 122°23'0 0.0
2018-Jun-22 04:59N 47°38' W 122°23'0 0.0
2018-Jun-22 04:29N 47°38' W 122°23'0 0.0
2018-Jun-22 03:59N 47°38' W 122°23'0 0.0
2018-Jun-22 03:29N 47°38' W 122°23'0 0.1
2018-Jun-22 02:59N 47°38' W 122°23'0 0.1
2018-Jun-22 02:26N 47°38' W 122°23'0 0.0
2018-Jun-22 01:59N 47°38' W 122°23'0 0.0
2018-Jun-22 01:25N 47°38' W 122°23'0 0.0
2018-Jun-22 00:56N 47°38' W 122°23'0 0.0
2018-Jun-22 00:23N 47°38' W 122°23'0 0.0
2018-Jun-21 23:53N 47°38' W 122°23'0 0.0
2018-Jun-21 07:14N 47°38' W 122°23'0 0.0
2018-Jun-21 06:59N 47°38' W 122°23'0 0.0
2018-Jun-21 06:26N 47°38' W 122°23'0 0.0
2018-Jun-21 05:56N 47°38' W 122°23'0 0.0
2018-Jun-20 23:29N 47°38' W 122°23'0 0.0
2018-Jun-20 22:59N 47°38' W 122°23'0 0.0
2018-Jun-20 22:23N 47°38' W 122°23'0 0.0
2018-Jun-20 21:59N 47°38' W 122°23'0 0.0
2018-Jun-20 20:26N 47°38' W 122°23'0 0.0
2018-Jun-20 19:56N 47°38' W 122°23'3 3.1
2018-Jun-20 19:02N 47°39' W 122°27'0 7.8
2018-Jun-20 19:00N 47°39' W 122°27'2 3.1
2018-Jun-20 18:30N 47°40' W 122°29'3 6.7
2018-Jun-20 18:00N 47°43' W 122°28'4 8.2
2018-Jun-20 17:30N 47°47' W 122°28'4 8.3
2018-Jun-20 17:00N 47°51' W 122°29'  

Dump ship's entire track history